Airfield :
LOGIN :

Register | Disclaimer

   EN    FR    IT 

 










Legend :    VFR   Marginal VFR   IFR   Intensive IFR   Very Intensive IFR
Visi :
Ceiling :
>= 8 km
>= 3000ft
5 to 8 km
1000 to 3000 ft
1500m to 5 km
500 to 1000 ft
800 to 1500m
200 to 500 ft
< 800m
< 200 ft
Symbols :   Thunderstorms  Fog  Heavy snow  Heavy precipitations  Wind > 20 kt
SIGMETs :     Misc.  Thunderstorms  Icing  Turbulence  Mountain Waves  Volcanic Ashes






- Airport Elevation : 26 ft


ETNT - Wittmundhaven AB

CURRENT METAR :
  • 151720Z 24010KT 9999 -RADZ BKN020 07/05 Q0999 WHT

EXPIRED METARs :
  • 151620Z 24012KT 9999 BKN020 07/04 Q0998 WHT
  • 151520Z 24012G24KT 9999 -RADZ BKN020 08/03 Q0997 WHT

TAF TAF ETNT
Valid from the 15 at 18:00 until the 16 at 03:00 UTC


151710Z 1518/1603 23015KT 9999 NSW SCT015 SCT040
TEMPO 1518/1521 24018G30KT 6000 -SHRA BKN015 BKN030TCU
PROB30 1518/1521 24020G32KT 4000 SHRA BKN010 BKN020CB BY ETGL



MET'MAP, your aeronautical weather chart ! - Copyright ORBIFLY December 2007 - Disclaimer

ORBIFLY MET'MAP TEAM :

Programming & Development : Alexandra Zaïnal
Concept & original design : Baudouin d'Aumeries
Assistance for programming : Marc-Olivier Méhu
Technical & hardware support : Manuel Goepfert

Contact : metmap@orbifly.com




SOURCES & CREDITS :

   NOAA